Time;durP1;ratioP1;P1;durP2;ratioP2;P2;SDS_P1;SDS_P2;PMS_P1;PMS_P2;Temp;Humidity;BMP_temperature;BMP_pressure;BME280_temperature;BME280_humidity;BME280_pressure;Samples;Min_cycle;Max_cycle;Signal;HPM_P1;HPM_P2
2021/09/12 00:02:00;;;;;;;4.83;2.70;;;19.80;1.00;;;;;;5006661;28;20504;-80
2021/09/12 00:04:28;;;;;;;3.93;2.40;;;19.80;1.00;;;;;;5007335;28;20468;-79
2021/09/12 00:06:57;;;;;;;3.33;2.40;;;19.70;1.00;;;;;;5009275;28;20531;-79
2021/09/12 00:09:26;;;;;;;3.13;2.40;;;19.80;1.00;;;;;;5008643;28;21009;-77
2021/09/12 00:11:54;;;;;;;2.57;2.30;;;19.70;1.00;;;;;;5005521;28;20896;-80
2021/09/12 00:14:22;;;;;;;2.67;1.90;;;19.70;1.00;;;;;;5007942;28;21037;-80
2021/09/12 00:16:50;;;;;;;3.00;2.70;;;19.70;1.00;;;;;;5009803;28;20527;-81
2021/09/12 00:19:18;;;;;;;2.90;2.70;;;19.70;1.00;;;;;;5009026;28;20536;-80
2021/09/12 00:21:47;;;;;;;3.17;2.00;;;19.70;1.00;;;;;;5007376;28;20461;-80
2021/09/12 00:24:15;;;;;;;2.30;2.10;;;19.60;1.00;;;;;;5008440;28;20465;-80
2021/09/12 00:26:45;;;;;;;2.43;2.23;;;19.60;1.00;;;;;;5011076;28;20945;-79
2021/09/12 00:29:13;;;;;;;2.57;1.93;;;19.60;1.00;;;;;;5008181;28;20480;-81
2021/09/12 00:31:41;;;;;;;6.10;2.33;;;19.60;1.00;;;;;;5002493;28;20488;-81
2021/09/12 00:34:09;;;;;;;2.37;2.17;;;19.50;1.00;;;;;;5009128;28;20458;-81
2021/09/12 00:36:37;;;;;;;2.93;2.00;;;19.50;1.00;;;;;;5009295;28;20855;-80
2021/09/12 00:39:05;;;;;;;3.57;2.10;;;19.50;1.00;;;;;;5007486;28;20450;-80
2021/09/12 00:41:36;;;;;;;2.27;2.17;;;19.50;1.00;;;;;;5005969;28;20492;-79
2021/09/12 00:44:09;;;;;;;2.87;2.30;;;19.50;1.00;;;;;;5008496;28;20857;-79
2021/09/12 00:46:39;;;;;;;2.40;1.90;;;19.50;1.00;;;;;;5007449;28;20511;-80
2021/09/12 00:49:07;;;;;;;4.20;2.67;;;19.50;1.00;;;;;;5006960;28;20524;-79
2021/09/12 00:51:36;;;;;;;2.30;2.10;;;19.40;1.00;;;;;;5007488;28;20563;-80
2021/09/12 00:54:06;;;;;;;2.07;1.90;;;19.40;1.00;;;;;;5008853;28;20868;-80
2021/09/12 00:56:37;;;;;;;2.50;2.30;;;19.40;1.00;;;;;;5009484;28;20453;-81
2021/09/12 00:59:10;;;;;;;2.73;2.30;;;19.40;1.00;;;;;;5007252;28;20545;-81
2021/09/12 01:01:40;;;;;;;2.33;2.13;;;19.40;1.00;;;;;;5001780;28;20488;-78
2021/09/12 01:04:09;;;;;;;3.97;2.37;;;19.30;1.00;;;;;;5008438;28;20903;-77
2021/09/12 01:06:37;;;;;;;2.40;2.20;;;19.30;1.00;;;;;;5007876;28;20453;-80
2021/09/12 01:09:06;;;;;;;2.73;1.80;;;19.30;1.00;;;;;;5006969;28;20465;-80
2021/09/12 01:11:34;;;;;;;1.90;1.80;;;19.30;1.00;;;;;;4999892;28;20457;-79
2021/09/12 01:14:02;;;;;;;2.07;1.90;;;19.30;1.00;;;;;;5008425;28;20461;-80
2021/09/12 01:16:32;;;;;;;2.60;1.93;;;19.30;1.00;;;;;;5007226;28;20453;-79
2021/09/12 01:19:00;;;;;;;2.90;2.43;;;19.30;1.00;;;;;;5005189;28;20823;-81
2021/09/12 01:21:28;;;;;;;2.57;2.37;;;19.20;1.00;;;;;;5007213;28;20968;-79
2021/09/12 01:23:56;;;;;;;3.00;1.90;;;19.20;1.00;;;;;;5003611;28;20826;-79
2021/09/12 01:26:28;;;;;;;2.20;2.03;;;19.20;1.00;;;;;;5008239;28;20879;-79
2021/09/12 01:28:56;;;;;;;2.27;1.90;;;19.20;1.00;;;;;;5007768;28;20533;-79
2021/09/12 01:31:26;;;;;;;2.50;2.20;;;19.10;1.00;;;;;;5007037;28;20456;-80
2021/09/12 01:33:55;;;;;;;3.83;1.93;;;19.10;1.00;;;;;;5007778;28;20576;-80
2021/09/12 01:36:24;;;;;;;1.97;1.80;;;19.10;1.00;;;;;;5007809;28;20457;-80
2021/09/12 01:38:52;;;;;;;1.70;1.60;;;19.10;1.00;;;;;;5007288;28;20454;-77
2021/09/12 01:41:21;;;;;;;2.70;2.50;;;19.10;1.00;;;;;;5004833;28;20822;-80
2021/09/12 01:43:52;;;;;;;2.30;2.10;;;19.00;1.00;;;;;;5008608;28;21038;-80
2021/09/12 01:46:20;;;;;;;2.30;1.70;;;19.00;1.00;;;;;;5008154;28;20468;-78
2021/09/12 01:48:48;;;;;;;2.57;2.20;;;19.00;1.00;;;;;;5006237;28;20485;-77
2021/09/12 01:51:17;;;;;;;1.90;1.80;;;19.00;1.00;;;;;;5007040;28;20487;-78
2021/09/12 01:53:46;;;;;;;3.03;1.90;;;18.90;1.00;;;;;;5008004;28;20492;-77
2021/09/12 01:56:15;;;;;;;2.57;1.70;;;19.00;1.00;;;;;;5008605;28;20457;-79
2021/09/12 01:58:43;;;;;;;3.10;2.20;;;19.00;1.00;;;;;;5007707;28;20837;-79
2021/09/12 02:01:12;;;;;;;2.17;1.97;;;18.90;1.00;;;;;;5005119;28;20545;-77
2021/09/12 02:03:41;;;;;;;2.97;2.33;;;18.90;1.00;;;;;;5007411;28;20552;-78
2021/09/12 02:06:09;;;;;;;2.57;2.37;;;18.90;1.00;;;;;;5005520;28;20533;-79
2021/09/12 02:08:37;;;;;;;2.40;2.20;;;18.90;1.00;;;;;;5008452;28;20541;-79
2021/09/12 02:11:05;;;;;;;1.53;1.43;;;18.90;1.00;;;;;;5002150;28;20855;-79
2021/09/12 02:13:33;;;;;;;2.47;2.00;;;18.80;1.00;;;;;;5008467;28;20535;-79
2021/09/12 02:16:01;;;;;;;2.73;2.20;;;18.80;1.00;;;;;;5006093;28;20452;-80
2021/09/12 02:18:31;;;;;;;2.43;2.23;;;18.80;1.00;;;;;;5007462;28;20522;-80
2021/09/12 02:20:59;;;;;;;2.70;1.97;;;18.70;1.00;;;;;;5004206;28;20465;-79
2021/09/12 02:23:27;;;;;;;3.10;2.10;;;18.70;1.00;;;;;;5008395;28;20464;-79
2021/09/12 02:25:56;;;;;;;2.43;2.00;;;18.70;1.00;;;;;;5005385;28;20469;-80
2021/09/12 02:28:24;;;;;;;2.20;2.00;;;18.70;1.00;;;;;;5011752;28;20498;-79
2021/09/12 02:30:53;;;;;;;1.97;1.87;;;18.70;1.00;;;;;;5008833;28;20472;-79
2021/09/12 02:33:21;;;;;;;2.33;2.23;;;18.70;1.00;;;;;;5010884;28;20493;-79
2021/09/12 02:35:51;;;;;;;2.47;2.07;;;18.70;1.00;;;;;;5012717;28;20448;-78
2021/09/12 02:38:19;;;;;;;2.40;2.20;;;18.70;1.00;;;;;;5010106;28;20522;-79
2021/09/12 02:40:47;;;;;;;2.27;2.07;;;18.70;1.00;;;;;;5009849;28;20514;-79
2021/09/12 02:43:15;;;;;;;2.10;1.90;;;18.70;1.00;;;;;;5009927;28;20485;-78
2021/09/12 02:45:43;;;;;;;1.83;1.73;;;18.60;1.00;;;;;;5010208;28;20461;-78
2021/09/12 02:48:11;;;;;;;2.10;1.90;;;18.70;1.00;;;;;;5010500;28;20460;-78
2021/09/12 02:50:39;;;;;;;2.37;1.70;;;18.60;1.00;;;;;;5010453;28;20467;-78
2021/09/12 02:53:09;;;;;;;1.93;1.83;;;18.60;1.00;;;;;;5011078;28;20524;-79
2021/09/12 02:55:37;;;;;;;2.53;2.13;;;18.60;1.00;;;;;;5000570;28;20445;-79
2021/09/12 02:58:05;;;;;;;2.60;2.33;;;18.50;1.00;;;;;;5009894;28;20738;-81
2021/09/12 03:00:33;;;;;;;2.50;2.10;;;18.50;1.00;;;;;;5009308;28;20758;-80
2021/09/12 03:03:03;;;;;;;1.90;1.80;;;18.50;1.00;;;;;;5011878;28;20539;-80
2021/09/12 03:05:31;;;;;;;3.80;2.20;;;18.50;1.00;;;;;;5011713;28;20484;-79
2021/09/12 03:08:00;;;;;;;2.67;2.47;;;18.40;1.00;;;;;;5012112;28;20538;-78
2021/09/12 03:10:30;;;;;;;2.10;1.97;;;18.40;1.00;;;;;;5005499;28;20941;-79
2021/09/12 03:12:58;;;;;;;3.20;2.07;;;18.40;1.00;;;;;;5005366;28;22325;-80
2021/09/12 03:15:26;;;;;;;3.07;1.93;;;18.40;1.00;;;;;;5010129;28;20816;-79
2021/09/12 03:17:54;;;;;;;3.40;1.90;;;18.40;1.00;;;;;;5012034;28;20499;-79
2021/09/12 03:20:22;;;;;;;2.37;1.93;;;18.40;1.00;;;;;;5008869;28;20462;-79
2021/09/12 03:22:50;;;;;;;2.00;1.90;;;18.30;1.00;;;;;;5009710;28;20479;-79
2021/09/12 03:25:19;;;;;;;2.60;2.10;;;18.40;1.00;;;;;;5026234;28;20534;-79
2021/09/12 03:27:51;;;;;;;2.63;1.73;;;18.30;1.00;;;;;;5010910;28;20448;-79
2021/09/12 03:30:19;;;;;;;2.83;2.63;;;18.30;1.00;;;;;;5008563;28;20542;-79
2021/09/12 03:32:47;;;;;;;2.20;1.77;;;18.30;1.00;;;;;;5010892;28;20468;-79
2021/09/12 03:35:16;;;;;;;1.63;1.53;;;18.30;1.00;;;;;;5009082;28;20521;-79
2021/09/12 03:37:44;;;;;;;1.97;1.87;;;18.30;1.00;;;;;;5008910;28;20978;-79
2021/09/12 03:40:13;;;;;;;1.73;1.63;;;18.30;1.00;;;;;;5006686;28;21340;-79
2021/09/12 03:42:41;;;;;;;1.87;1.67;;;18.30;1.00;;;;;;5022445;28;20532;-79
2021/09/12 03:45:11;;;;;;;5.77;1.70;;;18.20;1.00;;;;;;5006463;28;20494;-80
2021/09/12 03:47:39;;;;;;;6.00;1.50;;;18.20;1.00;;;;;;4991782;28;20488;-80
2021/09/12 03:50:09;;;;;;;1.90;1.80;;;18.20;1.00;;;;;;5004974;28;20858;-79
2021/09/12 03:52:38;;;;;;;4.43;1.83;;;18.20;1.00;;;;;;5011198;28;21008;-79
2021/09/12 03:55:07;;;;;;;1.87;1.77;;;18.20;1.00;;;;;;5008838;28;21011;-80
2021/09/12 03:57:35;;;;;;;1.77;1.67;;;18.20;1.00;;;;;;5010306;28;20456;-79
2021/09/12 04:00:04;;;;;;;2.40;2.20;;;18.10;1.00;;;;;;5006328;28;20539;-79
2021/09/12 04:02:34;;;;;;;1.73;1.63;;;18.10;1.00;;;;;;5010394;28;20515;-79
2021/09/12 04:05:03;;;;;;;2.63;1.50;;;18.10;1.00;;;;;;5008995;28;20955;-79
2021/09/12 04:07:31;;;;;;;1.90;1.80;;;18.10;1.00;;;;;;5009134;28;20488;-78
2021/09/12 04:09:59;;;;;;;2.10;1.90;;;18.00;1.00;;;;;;5008617;28;20515;-80
2021/09/12 04:12:27;;;;;;;2.03;1.60;;;18.00;1.00;;;;;;5005225;28;20534;-77
2021/09/12 04:14:55;;;;;;;2.57;1.90;;;18.00;1.00;;;;;;5009178;28;20479;-79
2021/09/12 04:17:24;;;;;;;4.03;2.33;;;18.00;1.00;;;;;;5003962;28;20490;-79
2021/09/12 04:19:53;;;;;;;2.63;2.10;;;18.00;1.00;;;;;;5008569;28;20990;-78
2021/09/12 04:22:21;;;;;;;1.80;1.47;;;18.00;1.00;;;;;;5010411;28;20893;-79
2021/09/12 04:24:49;;;;;;;2.10;2.00;;;18.00;1.00;;;;;;5008286;28;20452;-79
2021/09/12 04:27:18;;;;;;;4.80;2.50;;;18.00;1.00;;;;;;5006917;28;20468;-79
2021/09/12 04:29:46;;;;;;;1.90;1.80;;;17.90;1.00;;;;;;5006146;28;20459;-79
2021/09/12 04:32:14;;;;;;;1.90;1.80;;;17.90;1.00;;;;;;5007846;28;20543;-79
2021/09/12 04:34:45;;;;;;;3.50;2.30;;;17.90;1.00;;;;;;5008315;28;20577;-78
2021/09/12 04:37:15;;;;;;;2.13;1.93;;;17.90;1.00;;;;;;5009258;28;20972;-78
2021/09/12 04:39:43;;;;;;;2.13;1.93;;;17.80;1.00;;;;;;5006217;28;20468;-79
2021/09/12 04:42:12;;;;;;;3.13;2.03;;;17.80;1.00;;;;;;5008781;28;20480;-77
2021/09/12 04:44:40;;;;;;;1.80;1.70;;;17.80;1.00;;;;;;4998692;28;20474;-78
2021/09/12 04:47:08;;;;;;;2.90;2.67;;;17.80;1.00;;;;;;5008747;28;21179;-78
2021/09/12 04:49:36;;;;;;;3.70;2.27;;;17.80;1.00;;;;;;5006424;28;20464;-79
2021/09/12 04:52:05;;;;;;;2.83;2.10;;;17.80;1.00;;;;;;5006246;28;20547;-79
2021/09/12 04:54:35;;;;;;;3.00;1.80;;;17.80;1.00;;;;;;5009142;28;20488;-78
2021/09/12 04:57:03;;;;;;;2.53;2.00;;;17.80;1.00;;;;;;5008657;28;20462;-79
2021/09/12 04:59:33;;;;;;;2.27;2.07;;;17.80;1.00;;;;;;5007576;28;20467;-79
2021/09/12 05:02:01;;;;;;;2.30;1.60;;;17.70;1.00;;;;;;5008105;28;20473;-79
2021/09/12 05:04:30;;;;;;;1.93;1.83;;;17.70;1.00;;;;;;5008495;28;20453;-79
2021/09/12 05:06:58;;;;;;;2.90;2.13;;;17.80;1.00;;;;;;5008198;28;20461;-80
2021/09/12 05:09:26;;;;;;;1.77;1.63;;;17.70;1.00;;;;;;5005405;28;21038;-77
2021/09/12 05:11:55;;;;;;;2.03;1.70;;;17.70;1.00;;;;;;5005140;28;20523;-78
2021/09/12 05:14:25;;;;;;;2.77;2.10;;;17.70;1.00;;;;;;5008003;28;20965;-77
2021/09/12 05:16:53;;;;;;;2.40;2.20;;;17.70;1.00;;;;;;5006730;28;20467;-80
2021/09/12 05:19:21;;;;;;;1.67;1.57;;;17.70;1.00;;;;;;5008652;28;20460;-81
2021/09/12 05:21:49;;;;;;;1.83;1.73;;;17.60;1.00;;;;;;5005988;28;20496;-79
2021/09/12 05:24:17;;;;;;;2.17;1.70;;;17.60;1.00;;;;;;5008731;28;20544;-78
2021/09/12 05:26:45;;;;;;;4.93;2.97;;;17.60;1.00;;;;;;5003083;28;20531;-78
2021/09/12 05:29:15;;;;;;;5.93;3.63;;;17.60;1.00;;;;;;5007335;28;21194;-78
2021/09/12 05:31:43;;;;;;;6.63;3.80;;;17.60;1.00;;;;;;5007994;28;20464;-77
2021/09/12 05:34:11;;;;;;;3.83;3.10;;;17.60;1.00;;;;;;5008447;28;20570;-78
2021/09/12 05:36:39;;;;;;;2.30;2.10;;;17.60;1.00;;;;;;5007184;28;20450;-78
2021/09/12 05:39:07;;;;;;;2.67;2.10;;;17.60;1.00;;;;;;4998324;28;20453;-75
2021/09/12 05:41:35;;;;;;;6.53;2.20;;;17.60;1.00;;;;;;5006121;28;20463;-78
2021/09/12 05:44:04;;;;;;;2.30;2.10;;;17.50;1.00;;;;;;5006694;28;20513;-77
2021/09/12 05:46:35;;;;;;;2.40;2.20;;;17.50;1.00;;;;;;5004579;28;20489;-77
2021/09/12 05:49:04;;;;;;;2.90;2.63;;;17.50;1.00;;;;;;5004625;28;20877;-73
2021/09/12 05:51:32;;;;;;;2.50;2.30;;;17.50;1.00;;;;;;5007109;28;20842;-79
2021/09/12 05:54:00;;;;;;;2.80;2.23;;;17.60;1.00;;;;;;5008596;28;20467;-79
2021/09/12 05:56:28;;;;;;;2.63;2.40;;;17.60;1.00;;;;;;5006364;28;20964;-78
2021/09/12 05:58:56;;;;;;;2.00;1.90;;;17.60;1.00;;;;;;4999048;28;20464;-78
2021/09/12 06:01:24;;;;;;;2.20;2.10;;;17.70;1.00;;;;;;5004122;28;20462;-78
2021/09/12 06:03:54;;;;;;;1.70;1.60;;;17.70;1.00;;;;;;5005353;28;20474;-78
2021/09/12 06:06:23;;;;;;;2.07;1.90;;;17.70;1.00;;;;;;5004688;28;20470;-77
2021/09/12 06:08:51;;;;;;;2.37;2.17;;;17.40;1.00;;;;;;5002465;28;20480;-77
2021/09/12 06:11:19;;;;;;;2.03;1.93;;;17.20;41.20;;;;;;5005544;28;20447;-78
2021/09/12 06:13:47;;;;;;;1.90;1.80;;;17.00;99.90;;;;;;5007122;28;20488;-79
2021/09/12 06:16:16;;;;;;;1.90;1.80;;;17.00;99.90;;;;;;5007106;28;20481;-78
2021/09/12 06:18:44;;;;;;;27.43;14.50;;;17.00;99.90;;;;;;5000717;28;20466;-79
2021/09/12 06:21:14;;;;;;;53.40;24.10;;;17.10;99.90;;;;;;5007596;28;21004;-79
2021/09/12 06:23:42;;;;;;;26.93;14.20;;;17.10;1.00;;;;;;5007939;28;21009;-78
2021/09/12 06:26:10;;;;;;;11.10;7.07;;;17.20;1.00;;;;;;5007136;28;20519;-78
2021/09/12 06:28:38;;;;;;;7.33;3.80;;;17.50;99.90;;;;;;5007054;28;20452;-75
2021/09/12 06:31:06;;;;;;;3.53;2.60;;;17.70;99.90;;;;;;5001615;28;20463;-78
2021/09/12 06:33:35;;;;;;;3.40;3.10;;;17.80;99.90;;;;;;5002271;28;20699;-77
2021/09/12 06:36:03;;;;;;;2.30;2.20;;;17.90;75.50;;;;;;4994647;28;20485;-78
2021/09/12 06:38:33;;;;;;;2.40;2.20;;;18.00;22.10;;;;;;5003167;28;20462;-78
2021/09/12 06:41:01;;;;;;;2.20;1.80;;;17.90;17.80;;;;;;5010264;28;20454;-79
2021/09/12 06:43:29;;;;;;;2.97;2.77;;;17.90;60.20;;;;;;5006469;28;20461;-80
2021/09/12 06:45:57;;;;;;;3.23;2.93;;;17.80;99.90;;;;;;4992907;28;20877;-79
2021/09/12 06:48:27;;;;;;;3.10;2.90;;;17.80;99.90;;;;;;5002528;28;20470;-78
2021/09/12 06:50:57;;;;;;;2.50;2.30;;;18.00;99.90;;;;;;5006060;28;21061;-78
2021/09/12 06:53:25;;;;;;;2.53;2.33;;;18.10;99.90;;;;;;5007651;28;20220;-78
2021/09/12 06:55:55;;;;;;;3.40;2.30;;;18.10;99.90;;;;;;5001840;28;20827;-80
2021/09/12 06:58:23;;;;;;;2.90;2.40;;;18.20;99.90;;;;;;5004299;28;20470;-81
2021/09/12 07:00:51;;;;;;;3.50;2.90;;;18.20;99.90;;;;;;5004976;28;20484;-80
2021/09/12 07:03:19;;;;;;;2.73;2.53;;;18.20;99.90;;;;;;5009024;28;20490;-79
2021/09/12 07:05:48;;;;;;;4.20;3.30;;;18.30;99.90;;;;;;5007794;28;20456;-80
2021/09/12 07:08:16;;;;;;;6.43;3.53;;;18.40;99.90;;;;;;5007503;28;20451;-79
2021/09/12 07:10:45;;;;;;;2.97;2.67;;;18.40;99.90;;;;;;5003829;28;20442;-78
2021/09/12 07:13:14;;;;;;;2.73;2.53;;;18.50;99.90;;;;;;5006345;28;20487;-80
2021/09/12 07:15:42;;;;;;;2.50;2.30;;;18.50;99.90;;;;;;5010584;28;21101;-80
2021/09/12 07:18:11;;;;;;;2.60;2.40;;;18.40;99.90;;;;;;5008281;28;20983;-78
2021/09/12 07:20:39;;;;;;;3.40;3.20;;;18.40;99.90;;;;;;5010761;28;20449;-78
2021/09/12 07:23:07;;;;;;;2.90;2.50;;;18.40;35.70;;;;;;5010793;28;20546;-77
2021/09/12 07:25:35;;;;;;;2.10;2.00;;;18.50;99.90;;;;;;5012401;28;20496;-79
2021/09/12 07:28:04;;;;;;;1.80;1.70;;;18.60;61.40;;;;;;5010422;28;20464;-80
2021/09/12 07:30:33;;;;;;;1.93;1.83;;;18.70;99.90;;;;;;5009698;28;20471;-80
2021/09/12 07:33:01;;;;;;;1.80;1.70;;;18.80;1.00;;;;;;5006092;28;20489;-77
2021/09/12 07:35:29;;;;;;;2.17;1.97;;;18.80;35.00;;;;;;5008419;28;20477;-78
2021/09/12 07:37:57;;;;;;;2.23;1.90;;;18.80;15.30;;;;;;5010495;28;20467;-80
2021/09/12 07:40:28;;;;;;;2.10;1.90;;;18.90;38.20;;;;;;5011488;28;20466;-80
2021/09/12 07:42:57;;;;;;;2.00;1.90;;;18.90;1.00;;;;;;5003523;28;20890;-79
2021/09/12 07:45:25;;;;;;;3.37;1.70;;;19.00;1.00;;;;;;5010230;28;20538;-81
2021/09/12 07:47:54;;;;;;;1.60;1.50;;;19.10;1.00;;;;;;5010688;28;20462;-78
2021/09/12 07:50:23;;;;;;;2.40;2.20;;;19.20;7.20;;;;;;5008254;28;20468;-82
2021/09/12 07:52:51;;;;;;;1.77;1.67;;;19.40;25.10;;;;;;5008838;28;20485;-79
2021/09/12 07:55:20;;;;;;;2.17;2.07;;;19.60;1.00;;;;;;5009323;28;20507;-80
2021/09/12 07:57:48;;;;;;;1.60;1.50;;;19.80;1.00;;;;;;5009759;28;20465;-80
2021/09/12 08:00:16;;;;;;;1.60;1.50;;;20.00;1.00;;;;;;5007523;28;20515;-80
2021/09/12 08:02:44;;;;;;;1.80;1.70;;;20.10;1.00;;;;;;5004327;28;20787;-80
2021/09/12 08:05:14;;;;;;;2.00;1.80;;;20.20;1.00;;;;;;5009684;28;20980;-82
2021/09/12 08:07:42;;;;;;;1.43;1.33;;;20.40;1.00;;;;;;5009575;28;20465;-78
2021/09/12 08:10:11;;;;;;;1.37;1.27;;;20.50;1.00;;;;;;5006989;28;20503;-78
2021/09/12 08:12:40;;;;;;;1.70;1.60;;;20.60;1.00;;;;;;5007977;28;20473;-80
2021/09/12 08:15:09;;;;;;;1.40;1.30;;;20.70;1.00;;;;;;5009943;28;20449;-81
2021/09/12 08:17:37;;;;;;;1.30;1.20;;;20.80;1.00;;;;;;5009314;28;20477;-81
2021/09/12 08:20:06;;;;;;;1.67;1.57;;;20.80;1.00;;;;;;5010611;28;20453;-83
2021/09/12 08:22:35;;;;;;;1.87;1.63;;;20.90;1.00;;;;;;5004424;28;21063;-80
2021/09/12 08:25:05;;;;;;;2.20;1.60;;;21.00;1.00;;;;;;5008713;28;20519;-83
2021/09/12 08:27:33;;;;;;;1.40;1.30;;;21.00;1.00;;;;;;5008858;28;20461;-83
2021/09/12 08:30:02;;;;;;;1.83;1.73;;;21.10;1.00;;;;;;5008708;28;20461;-82
2021/09/12 08:32:30;;;;;;;1.80;1.70;;;21.10;1.00;;;;;;5000992;28;20485;-77
2021/09/12 08:34:58;;;;;;;2.50;1.70;;;21.20;1.00;;;;;;5003879;28;21337;-80
2021/09/12 08:37:26;;;;;;;1.83;1.50;;;21.30;1.00;;;;;;5007721;28;20889;-81
2021/09/12 08:39:55;;;;;;;2.43;2.23;;;21.30;1.00;;;;;;5008414;28;20520;-81
2021/09/12 08:42:26;;;;;;;1.90;1.80;;;21.40;1.00;;;;;;5008299;28;20521;-78
2021/09/12 08:44:54;;;;;;;2.17;1.77;;;21.40;99.90;;;;;;5011058;28;20437;-79
2021/09/12 08:47:23;;;;;;;1.50;1.40;;;21.40;99.90;;;;;;5007588;28;20807;-78
2021/09/12 08:49:52;;;;;;;1.77;1.67;;;21.40;99.90;;;;;;5009497;28;20457;-76
2021/09/12 08:52:20;;;;;;;1.83;1.63;;;21.50;99.90;;;;;;5011580;28;20477;-79
2021/09/12 08:54:48;;;;;;;2.33;1.50;;;21.60;99.90;;;;;;5009248;28;20463;-79
2021/09/12 08:57:18;;;;;;;1.60;1.50;;;21.60;99.90;;;;;;5010438;28;20478;-80
2021/09/12 08:59:50;;;;;;;1.40;1.30;;;21.60;99.90;;;;;;5009287;28;20492;-77
2021/09/12 09:02:26;;;;;;;1.40;1.30;;;21.60;99.90;;;;;;5009093;28;20489;-78
2021/09/12 09:05:02;;;;;;;1.63;1.50;;;21.60;99.90;;;;;;5010427;28;20458;-78
2021/09/12 09:07:32;;;;;;;1.10;1.00;;;21.70;99.90;;;;;;5009366;28;20511;-79
2021/09/12 09:10:03;;;;;;;1.70;1.20;;;21.70;99.90;;;;;;5009974;28;20465;-78
2021/09/12 09:12:35;;;;;;;1.80;1.20;;;21.80;99.90;;;;;;5003806;28;20485;-80
2021/09/12 09:15:13;;;;;;;1.33;1.23;;;21.90;99.90;;;;;;5008037;28;20513;-81
2021/09/12 09:17:44;;;;;;;1.40;1.30;;;22.00;99.90;;;;;;5010656;28;20555;-80
2021/09/12 09:20:17;;;;;;;1.30;1.20;;;22.00;99.90;;;;;;5005457;28;20954;-79
2021/09/12 09:22:47;;;;;;;1.43;1.30;;;22.10;99.90;;;;;;5022224;28;20494;-77
2021/09/12 09:25:19;;;;;;;1.40;1.30;;;22.20;99.90;;;;;;5007614;28;20828;-78
2021/09/12 09:28:03;;;;;;;1.30;1.20;;;22.20;99.90;;;;;;5003576;28;20517;-78
2021/09/12 09:30:36;;;;;;;1.27;1.17;;;22.20;99.90;;;;;;5005203;28;20780;-78
2021/09/12 09:33:15;;;;;;;2.03;1.40;;;22.30;99.90;;;;;;5021536;28;20464;-79
2021/09/12 09:36:04;;;;;;;1.30;1.10;;;22.30;99.90;;;;;;5003743;28;20523;-78
2021/09/12 09:38:34;;;;;;;1.40;1.30;;;22.30;99.90;;;;;;5008931;28;20539;-80
2021/09/12 09:41:05;;;;;;;1.20;1.10;;;22.40;99.90;;;;;;5006766;28;20468;-77
2021/09/12 09:43:44;;;;;;;2.00;1.30;;;22.50;99.90;;;;;;5006559;28;20475;-79
2021/09/12 09:46:33;;;;;;;1.40;1.30;;;22.50;99.90;;;;;;5006548;28;20488;-79
2021/09/12 09:49:19;;;;;;;1.80;1.70;;;22.50;99.90;;;;;;5003074;28;20510;-78
2021/09/12 09:51:48;;;;;;;1.53;1.30;;;22.50;99.90;;;;;;5005411;28;20465;-76
2021/09/12 09:54:17;;;;;;;1.40;1.30;;;22.70;99.90;;;;;;5007308;28;20461;-76
2021/09/12 09:56:47;;;;;;;1.97;1.10;;;22.80;99.90;;;;;;5008018;28;20470;-79
2021/09/12 09:59:18;;;;;;;1.40;1.10;;;22.70;99.90;;;;;;5005795;28;20506;-77
2021/09/12 10:01:49;;;;;;;1.90;1.20;;;22.80;99.90;;;;;;5004676;28;20984;-76
2021/09/12 10:04:18;;;;;;;1.50;1.40;;;22.80;99.90;;;;;;5000972;28;20472;-78
2021/09/12 10:06:48;;;;;;;1.30;1.20;;;22.90;99.90;;;;;;5006613;28;20476;-79
2021/09/12 10:09:18;;;;;;;3.83;1.43;;;22.90;99.90;;;;;;5005672;28;20938;-78
2021/09/12 10:11:49;;;;;;;1.50;1.37;;;22.90;99.90;;;;;;5001202;28;20473;-78
2021/09/12 10:14:25;;;;;;;1.23;1.07;;;22.90;99.90;;;;;;5005979;28;20986;-79
2021/09/12 10:16:54;;;;;;;1.40;1.30;;;23.00;99.90;;;;;;5008025;28;20489;-77
2021/09/12 10:19:33;;;;;;;1.10;1.00;;;22.90;99.90;;;;;;5006139;28;20465;-79
2021/09/12 10:22:02;;;;;;;1.50;1.30;;;23.00;99.90;;;;;;5003069;28;20493;-81
2021/09/12 10:24:33;;;;;;;1.27;1.17;;;23.00;99.90;;;;;;5009260;28;20442;-77
2021/09/12 10:27:34;;;;;;;1.17;1.00;;;23.00;99.90;;;;;;5007903;28;20547;-77
2021/09/12 10:30:20;;;;;;;1.80;1.27;;;23.10;99.90;;;;;;4999986;28;20834;-77
2021/09/12 10:32:50;;;;;;;1.20;1.10;;;23.00;99.90;;;;;;5003509;28;20747;-78
2021/09/12 10:35:24;;;;;;;1.33;1.23;;;23.00;99.90;;;;;;5006687;28;20516;-78
2021/09/12 10:37:58;;;;;;;1.87;1.20;;;23.00;99.90;;;;;;5002052;28;20507;-78
2021/09/12 10:40:47;;;;;;;1.30;1.20;;;23.00;99.90;;;;;;4995134;28;20465;-75
2021/09/12 10:43:41;;;;;;;1.37;1.20;;;23.00;99.90;;;;;;5007100;28;20476;-80
2021/09/12 10:46:27;;;;;;;1.30;1.20;;;23.10;99.90;;;;;;5001597;28;20919;-80
2021/09/12 10:49:07;;;;;;;1.40;1.30;;;23.20;99.90;;;;;;4994111;28;21024;-76
2021/09/12 10:51:38;;;;;;;2.17;1.27;;;23.20;99.90;;;;;;5008574;28;20456;-78
2021/09/12 10:54:07;;;;;;;2.20;1.30;;;23.20;99.90;;;;;;5010805;28;20441;-77
2021/09/12 10:56:36;;;;;;;2.47;1.17;;;23.30;99.90;;;;;;5003972;28;20446;-74
2021/09/12 10:59:10;;;;;;;1.70;1.30;;;23.30;99.90;;;;;;5001123;28;20580;-79
2021/09/12 11:01:42;;;;;;;3.97;2.20;;;23.40;99.90;;;;;;5001694;28;20480;-76
2021/09/12 11:04:12;;;;;;;2.10;1.87;;;23.50;99.90;;;;;;5009411;28;20541;-76
2021/09/12 11:06:42;;;;;;;1.30;1.20;;;23.50;99.90;;;;;;5005284;28;20546;-78
2021/09/12 11:09:20;;;;;;;2.40;1.23;;;23.60;99.90;;;;;;5007612;28;20461;-78
2021/09/12 11:11:48;;;;;;;1.43;1.30;;;23.60;99.90;;;;;;5004950;28;20457;-76
2021/09/12 11:14:18;;;;;;;1.30;1.20;;;23.60;99.90;;;;;;5011091;28;20449;-78
2021/09/12 11:16:48;;;;;;;1.13;1.10;;;23.60;99.90;;;;;;5009657;28;20453;-77
2021/09/12 11:19:16;;;;;;;2.73;1.50;;;23.70;99.90;;;;;;5005470;28;20507;-78
2021/09/12 11:21:46;;;;;;;1.73;1.20;;;23.70;99.90;;;;;;5008741;28;20530;-78
2021/09/12 11:24:15;;;;;;;1.40;1.30;;;23.80;99.90;;;;;;5005559;28;20529;-77
2021/09/12 11:26:45;;;;;;;2.10;1.20;;;23.90;99.90;;;;;;5007993;28;20465;-76
2021/09/12 11:29:15;;;;;;;1.60;1.17;;;23.90;99.90;;;;;;5009140;28;20953;-77
2021/09/12 11:31:45;;;;;;;1.13;0.90;;;23.90;99.90;;;;;;5009485;28;20547;-79
2021/09/12 11:34:17;;;;;;;3.30;1.30;;;24.00;99.90;;;;;;5006438;28;21233;-78
2021/09/12 11:36:50;;;;;;;1.20;0.97;;;24.00;99.90;;;;;;5010610;28;20450;-77
2021/09/12 11:39:25;;;;;;;1.67;1.40;;;24.00;99.90;;;;;;5010828;28;20892;-76
2021/09/12 11:41:54;;;;;;;1.70;1.40;;;24.00;99.90;;;;;;5007273;28;20477;-75
2021/09/12 11:44:23;;;;;;;1.40;1.30;;;23.90;99.90;;;;;;5009728;28;20445;-79
2021/09/12 11:46:52;;;;;;;1.30;1.20;;;23.90;99.90;;;;;;5010514;28;20796;-79
2021/09/12 11:49:23;;;;;;;1.30;1.20;;;23.90;99.90;;;;;;5008082;28;20529;-78
2021/09/12 11:51:51;;;;;;;1.50;1.40;;;24.00;99.90;;;;;;5003527;28;20552;-76
2021/09/12 11:54:22;;;;;;;3.37;1.20;;;24.00;99.90;;;;;;5009215;28;20438;-78
2021/09/12 11:56:56;;;;;;;4.00;1.27;;;23.90;99.90;;;;;;5010819;28;20446;-78
2021/09/12 11:59:26;;;;;;;1.27;1.20;;;23.80;99.90;;;;;;5007355;28;20473;-80
2021/09/12 12:01:55;;;;;;;1.20;1.10;;;23.90;99.90;;;;;;5007401;28;21068;-79
2021/09/12 12:04:27;;;;;;;1.47;1.30;;;24.00;99.90;;;;;;5008116;28;20961;-77
2021/09/12 12:06:58;;;;;;;1.93;1.20;;;23.90;99.90;;;;;;5004980;28;20852;-82
2021/09/12 12:09:38;;;;;;;1.50;1.33;;;24.00;99.90;;;;;;5008317;28;20460;-79
2021/09/12 12:12:09;;;;;;;1.50;1.40;;;24.10;99.90;;;;;;5004799;28;20477;-80
2021/09/12 12:14:46;;;;;;;2.77;1.37;;;24.10;99.90;;;;;;5007442;28;20845;-77
2021/09/12 12:17:16;;;;;;;1.43;1.10;;;24.10;99.90;;;;;;5006589;28;20457;-77
2021/09/12 12:19:46;;;;;;;1.33;1.23;;;24.20;99.90;;;;;;5007092;28;20504;-78
2021/09/12 12:22:14;;;;;;;3.17;1.30;;;24.20;99.90;;;;;;5008078;28;20616;-80
2021/09/12 12:24:44;;;;;;;1.17;1.03;;;24.20;99.90;;;;;;5006168;28;20937;-78
2021/09/12 12:27:14;;;;;;;1.20;1.10;;;24.30;99.90;;;;;;5004903;28;20513;-80
2021/09/12 12:29:43;;;;;;;1.53;1.43;;;24.30;99.90;;;;;;5006211;28;20462;-81
2021/09/12 12:32:13;;;;;;;1.20;1.00;;;24.40;99.90;;;;;;5003212;28;20527;-78
2021/09/12 12:34:48;;;;;;;1.40;1.30;;;24.40;99.90;;;;;;5003091;28;20453;-79
2021/09/12 12:37:18;;;;;;;1.53;1.43;;;24.50;99.90;;;;;;5009295;28;20507;-77
2021/09/12 12:39:58;;;;;;;1.40;1.10;;;24.50;99.90;;;;;;5004219;28;20492;-80
2021/09/12 12:42:37;;;;;;;1.17;1.07;;;24.50;99.90;;;;;;5006037;28;20478;-79
2021/09/12 12:45:23;;;;;;;2.73;1.20;;;24.60;99.90;;;;;;5008074;28;20949;-82
2021/09/12 12:47:53;;;;;;;1.30;1.20;;;24.70;99.90;;;;;;5001512;28;20460;-80
2021/09/12 12:50:30;;;;;;;1.87;1.00;;;24.70;99.90;;;;;;5004258;28;20465;-83
2021/09/12 12:53:15;;;;;;;1.67;1.10;;;24.70;99.90;;;;;;5004635;28;20501;-79
2021/09/12 12:55:44;;;;;;;3.20;1.10;;;24.70;99.90;;;;;;5009059;28;20527;-78
2021/09/12 12:58:14;;;;;;;1.70;1.20;;;24.80;99.90;;;;;;5004459;28;21284;-80
2021/09/12 13:00:43;;;;;;;1.10;1.00;;;24.80;99.90;;;;;;5006063;28;20461;-80
2021/09/12 13:03:12;;;;;;;1.27;1.17;;;24.80;99.90;;;;;;5009423;28;20466;-78
2021/09/12 13:05:43;;;;;;;1.30;1.20;;;24.80;99.90;;;;;;5005788;28;20460;-80
2021/09/12 13:08:12;;;;;;;1.27;1.17;;;24.80;99.90;;;;;;5001901;28;20468;-80